Time;durP1;ratioP1;P1;durP2;ratioP2;P2;SDS_P1;SDS_P2;PMS_P1;PMS_P2;Temp;Humidity;BMP_temperature;BMP_pressure;BME280_temperature;BME280_humidity;BME280_pressure;Samples;Min_cycle;Max_cycle;Signal;HPM_P1;HPM_P2
2022/02/13 00:00:41;;;;;;;3.83;3.60;;;1.50;88.00;;;;;;5051658;28;20275;-65
2022/02/13 00:03:09;;;;;;;3.33;3.13;;;1.50;88.90;;;;;;5046734;28;20707;-65
2022/02/13 00:05:36;;;;;;;3.53;3.33;;;1.50;88.90;;;;;;5052773;28;20233;-65
2022/02/13 00:08:04;;;;;;;3.88;3.67;;;1.40;88.80;;;;;;5050115;28;20203;-65
2022/02/13 00:10:31;;;;;;;3.67;3.38;;;1.50;88.80;;;;;;5052817;28;20221;-65
2022/02/13 00:12:58;;;;;;;3.65;3.35;;;1.40;88.90;;;;;;5047910;28;20658;-65
2022/02/13 00:15:26;;;;;;;3.22;3.03;;;1.40;88.90;;;;;;5044919;28;20325;-65
2022/02/13 00:17:53;;;;;;;3.30;3.10;;;1.40;89.10;;;;;;5040870;28;20248;-65
2022/02/13 00:20:21;;;;;;;3.70;3.45;;;1.40;89.30;;;;;;5040252;28;20223;-65
2022/02/13 00:22:48;;;;;;;4.00;3.70;;;1.30;89.70;;;;;;5043060;28;20202;-66
2022/02/13 00:25:16;;;;;;;4.13;3.83;;;1.30;89.70;;;;;;5043477;28;20222;-65
2022/02/13 00:27:45;;;;;;;4.47;4.07;;;1.30;89.50;;;;;;5043148;28;20248;-65
2022/02/13 00:30:13;;;;;;;3.58;3.38;;;1.30;89.30;;;;;;5036279;28;20222;-65
2022/02/13 00:32:40;;;;;;;3.30;3.10;;;1.20;89.40;;;;;;5036049;28;20191;-65
2022/02/13 00:35:09;;;;;;;3.47;3.28;;;1.20;89.40;;;;;;5039241;28;20231;-65
2022/02/13 00:37:38;;;;;;;3.65;3.40;;;1.10;89.10;;;;;;5046438;28;20194;-64
2022/02/13 00:40:06;;;;;;;3.47;3.28;;;1.10;89.30;;;;;;5040360;28;20222;-65
2022/02/13 00:42:33;;;;;;;3.55;3.35;;;1.10;89.50;;;;;;5040856;28;20217;-65
2022/02/13 00:45:00;;;;;;;3.50;3.30;;;1.10;89.60;;;;;;5038125;28;20215;-65
2022/02/13 00:47:27;;;;;;;3.75;3.55;;;1.10;89.90;;;;;;5045684;28;20278;-65
2022/02/13 00:49:54;;;;;;;3.78;3.53;;;1.10;89.70;;;;;;5039039;28;20272;-65
2022/02/13 00:52:22;;;;;;;3.28;3.08;;;1.10;90.00;;;;;;5046607;28;20199;-64
2022/02/13 00:54:50;;;;;;;3.85;3.55;;;1.10;90.10;;;;;;5039650;28;20223;-66
2022/02/13 00:57:17;;;;;;;3.58;3.35;;;1.10;90.00;;;;;;5046729;28;20206;-65
2022/02/13 00:59:44;;;;;;;3.83;3.53;;;1.10;90.00;;;;;;5043511;28;20640;-65
2022/02/13 01:02:11;;;;;;;4.03;3.72;;;1.10;90.00;;;;;;5041640;28;20265;-64
2022/02/13 01:04:38;;;;;;;3.72;3.53;;;1.10;90.10;;;;;;5045078;28;20785;-65
2022/02/13 01:07:05;;;;;;;3.90;3.70;;;1.10;90.30;;;;;;5044947;28;20275;-65
2022/02/13 01:09:32;;;;;;;4.10;3.80;;;1.10;90.70;;;;;;5040706;28;20218;-65
2022/02/13 01:12:01;;;;;;;3.50;3.30;;;1.10;90.40;;;;;;5037915;28;20210;-66
2022/02/13 01:14:28;;;;;;;3.70;3.42;;;1.00;90.30;;;;;;5038058;28;20238;-64
2022/02/13 01:16:55;;;;;;;3.97;3.78;;;1.00;90.30;;;;;;5044211;28;20689;-64
2022/02/13 01:19:22;;;;;;;3.85;3.55;;;0.90;90.00;;;;;;5041078;28;20276;-65
2022/02/13 01:21:49;;;;;;;4.00;3.80;;;0.90;90.10;;;;;;5043125;28;20199;-65
2022/02/13 01:24:16;;;;;;;4.10;3.90;;;0.80;90.10;;;;;;5045020;28;20258;-65
2022/02/13 01:26:43;;;;;;;3.70;3.45;;;0.80;90.30;;;;;;5050067;28;20221;-65
2022/02/13 01:29:11;;;;;;;4.45;4.15;;;0.70;90.30;;;;;;5044857;28;20248;-65
2022/02/13 01:31:39;;;;;;;4.78;4.38;;;0.70;90.50;;;;;;5045691;28;20604;-64
2022/02/13 01:34:06;;;;;;;4.10;3.88;;;0.60;90.40;;;;;;5045971;28;20214;-65
2022/02/13 01:36:33;;;;;;;4.55;4.25;;;0.60;90.50;;;;;;5050429;28;20206;-65
2022/02/13 01:39:01;;;;;;;3.90;3.60;;;0.60;90.50;;;;;;5047914;28;20206;-65
2022/02/13 01:41:28;;;;;;;4.25;3.95;;;0.60;90.40;;;;;;5046600;28;20201;-64
2022/02/13 01:43:57;;;;;;;4.28;3.95;;;0.50;90.40;;;;;;5047482;28;20222;-65
2022/02/13 01:46:26;;;;;;;4.47;4.18;;;0.50;90.20;;;;;;5043891;28;20262;-64
2022/02/13 01:48:52;;;;;;;4.13;3.83;;;0.50;90.30;;;;;;5047166;28;20210;-65
2022/02/13 01:51:20;;;;;;;4.82;4.43;;;0.50;90.40;;;;;;5045166;28;20284;-65
2022/02/13 01:53:47;;;;;;;4.68;4.38;;;0.50;90.60;;;;;;5046828;28;20463;-64
2022/02/13 01:56:14;;;;;;;4.53;4.10;;;0.50;90.70;;;;;;5045973;28;20215;-64
2022/02/13 01:58:42;;;;;;;4.43;4.03;;;0.50;90.60;;;;;;5050073;28;20198;-65
2022/02/13 02:01:09;;;;;;;3.92;3.72;;;0.50;90.60;;;;;;5044001;28;20828;-64
2022/02/13 02:03:38;;;;;;;4.28;3.97;;;0.50;90.70;;;;;;5050413;28;20692;-64
2022/02/13 02:06:05;;;;;;;3.83;3.63;;;0.50;90.70;;;;;;5049589;28;20231;-64
2022/02/13 02:08:32;;;;;;;4.40;4.10;;;0.50;90.60;;;;;;5048901;28;20635;-65
2022/02/13 02:10:59;;;;;;;3.65;3.45;;;0.50;90.70;;;;;;5046148;28;20681;-65
2022/02/13 02:13:26;;;;;;;3.97;3.67;;;0.50;90.80;;;;;;5042870;28;20774;-64
2022/02/13 02:15:53;;;;;;;3.75;3.55;;;0.50;90.90;;;;;;5050516;28;20221;-64
2022/02/13 02:18:20;;;;;;;4.07;3.78;;;0.50;90.90;;;;;;5045716;28;20199;-65
2022/02/13 02:20:49;;;;;;;3.50;3.30;;;0.50;90.90;;;;;;5050668;28;20279;-65
2022/02/13 02:23:18;;;;;;;3.58;3.28;;;0.50;90.90;;;;;;5049385;28;20310;-65
2022/02/13 02:25:45;;;;;;;4.35;3.95;;;0.40;90.90;;;;;;5052484;28;20226;-64
2022/02/13 02:28:12;;;;;;;4.10;3.80;;;0.40;91.00;;;;;;5041884;28;22068;-65
2022/02/13 02:30:39;;;;;;;3.42;3.22;;;0.40;91.00;;;;;;5051304;28;20716;-64
2022/02/13 02:33:10;;;;;;;5.65;3.95;;;0.40;91.00;;;;;;5046020;28;20198;-65
2022/02/13 02:35:37;;;;;;;3.40;3.20;;;0.30;91.10;;;;;;5052865;28;20275;-64
2022/02/13 02:38:04;;;;;;;3.85;3.65;;;0.30;91.00;;;;;;5046270;28;20210;-64
2022/02/13 02:40:33;;;;;;;3.78;3.58;;;0.30;91.00;;;;;;5044103;28;20773;-65
2022/02/13 02:43:00;;;;;;;3.28;3.08;;;0.30;90.90;;;;;;5042876;28;20199;-65
2022/02/13 02:45:27;;;;;;;3.50;3.30;;;0.20;91.00;;;;;;5050428;28;20277;-65
2022/02/13 02:47:54;;;;;;;3.97;3.67;;;0.20;91.10;;;;;;5049510;28;20633;-65
2022/02/13 02:50:21;;;;;;;3.67;3.47;;;0.20;91.20;;;;;;5048518;28;20264;-65
2022/02/13 02:52:48;;;;;;;3.63;3.33;;;0.20;91.10;;;;;;5048540;28;20839;-65
2022/02/13 02:55:15;;;;;;;4.00;3.80;;;0.20;91.30;;;;;;5050169;28;20278;-65
2022/02/13 02:57:43;;;;;;;3.80;3.50;;;0.20;91.30;;;;;;5050783;28;20259;-64
2022/02/13 03:00:11;;;;;;;3.83;3.63;;;0.20;91.40;;;;;;5043309;28;20210;-65
2022/02/13 03:02:39;;;;;;;3.90;3.60;;;0.10;91.40;;;;;;5043713;28;20267;-64
2022/02/13 03:05:07;;;;;;;3.63;3.42;;;0.10;91.30;;;;;;5046975;28;20280;-65
2022/02/13 03:07:34;;;;;;;3.95;3.70;;;0.10;91.20;;;;;;5051981;28;20602;-65
2022/02/13 03:10:01;;;;;;;3.40;3.20;;;0.10;91.20;;;;;;5049184;28;20211;-64
2022/02/13 03:12:28;;;;;;;4.57;4.28;;;0.10;91.40;;;;;;5049769;28;20262;-63
2022/02/13 03:14:57;;;;;;;3.60;3.40;;;0.10;91.40;;;;;;5044389;28;20223;-64
2022/02/13 03:17:24;;;;;;;3.95;3.75;;;0.10;91.50;;;;;;5052347;28;20195;-64
2022/02/13 03:19:51;;;;;;;4.20;3.90;;;0.00;91.40;;;;;;5050996;28;20251;-65
2022/02/13 03:22:18;;;;;;;3.55;3.35;;;0.00;91.40;;;;;;5050752;28;20620;-65
2022/02/13 03:24:45;;;;;;;4.05;3.85;;;0.00;91.30;;;;;;5051393;28;20222;-65
2022/02/13 03:27:12;;;;;;;3.90;3.70;;;-0.10;91.10;;;;;;5045864;28;20770;-65
2022/02/13 03:29:39;;;;;;;4.00;3.70;;;-0.10;91.20;;;;;;5050407;28;20207;-65
2022/02/13 03:32:08;;;;;;;3.58;3.38;;;0.00;91.30;;;;;;5049497;28;20206;-65
2022/02/13 03:34:35;;;;;;;3.13;2.92;;;0.00;91.50;;;;;;5059333;28;20684;-65
2022/02/13 03:37:02;;;;;;;3.33;3.13;;;0.00;91.70;;;;;;5053291;28;20256;-65
2022/02/13 03:39:29;;;;;;;3.28;3.08;;;0.00;91.90;;;;;;5045913;28;20204;-65
2022/02/13 03:41:56;;;;;;;3.72;3.53;;;0.00;91.80;;;;;;5050303;28;20317;-64
2022/02/13 03:44:23;;;;;;;3.90;3.60;;;0.00;91.70;;;;;;5069274;22;20280;-72
2022/02/13 03:46:51;;;;;;;4.20;3.90;;;0.00;91.80;;;;;;5069451;28;20222;-73
2022/02/13 03:49:20;;;;;;;4.28;3.97;;;0.00;91.60;;;;;;5069271;28;20205;-74
2022/02/13 03:51:47;;;;;;;4.25;3.95;;;0.00;91.60;;;;;;5070035;28;20623;-71
2022/02/13 03:54:14;;;;;;;3.85;3.50;;;-0.10;91.80;;;;;;5069932;28;20743;-73
2022/02/13 03:56:41;;;;;;;3.17;3.00;;;-0.10;91.80;;;;;;5074027;28;20216;-73
2022/02/13 03:59:10;;;;;;;4.18;3.97;;;-0.10;92.00;;;;;;5066415;28;20202;-72
2022/02/13 04:01:37;;;;;;;3.08;2.92;;;-0.20;91.90;;;;;;5086211;28;20296;-72
2022/02/13 04:04:04;;;;;;;3.70;3.50;;;-0.20;92.20;;;;;;5067568;28;20315;-73
2022/02/13 04:06:33;;;;;;;4.20;4.00;;;-0.20;91.70;;;;;;5072081;28;20218;-76
2022/02/13 04:09:00;;;;;;;4.00;3.80;;;-0.20;91.70;;;;;;5070290;28;20203;-71
2022/02/13 04:11:27;;;;;;;3.97;3.67;;;-0.20;91.90;;;;;;5063728;28;20789;-73
2022/02/13 04:13:54;;;;;;;3.55;3.35;;;-0.20;91.90;;;;;;5071444;28;20270;-74
2022/02/13 04:16:21;;;;;;;3.78;3.58;;;-0.30;91.90;;;;;;5064561;28;20477;-73
2022/02/13 04:18:49;;;;;;;4.20;4.00;;;-0.30;92.00;;;;;;5068752;28;20199;-72
2022/02/13 04:21:16;;;;;;;4.20;3.90;;;-0.30;92.00;;;;;;5066772;28;20306;-73
2022/02/13 04:23:44;;;;;;;4.25;4.05;;;-0.30;92.00;;;;;;5065115;28;20738;-72
2022/02/13 04:26:11;;;;;;;4.10;3.85;;;-0.30;91.90;;;;;;5064942;28;20226;-72
2022/02/13 04:28:38;;;;;;;4.20;3.90;;;-0.40;91.90;;;;;;5072819;28;20203;-72
2022/02/13 04:31:05;;;;;;;4.50;4.20;;;-0.40;91.80;;;;;;5067905;28;20230;-72
2022/02/13 04:33:33;;;;;;;3.95;3.75;;;-0.40;91.80;;;;;;5067718;28;20198;-74
2022/02/13 04:36:00;;;;;;;4.38;4.13;;;-0.40;91.90;;;;;;5065822;28;20223;-70
2022/02/13 04:38:27;;;;;;;4.30;4.00;;;-0.40;91.90;;;;;;5066815;28;20190;-75
2022/02/13 04:40:56;;;;;;;3.70;3.50;;;-0.50;91.90;;;;;;5069478;28;20271;-71
2022/02/13 04:43:23;;;;;;;3.83;3.63;;;-0.50;92.00;;;;;;5067845;28;20194;-74
2022/02/13 04:45:50;;;;;;;4.70;4.40;;;-0.50;92.20;;;;;;5071529;28;20218;-73
2022/02/13 04:48:18;;;;;;;3.50;3.30;;;-0.50;92.30;;;;;;5067199;28;20216;-72
2022/02/13 04:50:45;;;;;;;3.67;3.35;;;-0.50;92.20;;;;;;5072784;28;20217;-73
2022/02/13 04:53:12;;;;;;;3.63;3.42;;;-0.50;92.30;;;;;;5068314;28;20197;-72
2022/02/13 04:55:39;;;;;;;4.32;4.03;;;-0.50;92.40;;;;;;5079510;28;20219;-74
2022/02/13 04:58:07;;;;;;;4.07;3.88;;;-0.50;92.40;;;;;;5066475;28;20191;-74
2022/02/13 05:00:35;;;;;;;4.13;3.83;;;-0.50;92.30;;;;;;5064921;28;20228;-72
2022/02/13 05:03:01;;;;;;;3.85;3.65;;;-0.50;92.30;;;;;;5070525;28;20612;-75
2022/02/13 05:05:28;;;;;;;4.00;3.80;;;-0.40;94.40;;;;;;5072789;28;20295;-75
2022/02/13 05:07:55;;;;;;;3.55;3.35;;;-0.40;92.80;;;;;;5067928;28;20267;-74
2022/02/13 05:10:22;;;;;;;4.00;3.75;;;-0.40;92.40;;;;;;5070926;28;20225;-75
2022/02/13 05:12:49;;;;;;;3.80;3.50;;;-0.50;92.30;;;;;;5071230;28;20217;-74
2022/02/13 05:15:19;;;;;;;4.10;3.80;;;-0.50;92.60;;;;;;5068925;28;20232;-75
2022/02/13 05:17:46;;;;;;;4.30;4.10;;;-0.50;92.20;;;;;;5064072;28;20284;-75
2022/02/13 05:20:13;;;;;;;4.30;4.00;;;-0.60;92.20;;;;;;5071210;28;20221;-74
2022/02/13 05:22:41;;;;;;;3.35;3.15;;;-0.60;92.40;;;;;;5075313;28;20194;-75
2022/02/13 05:25:09;;;;;;;4.82;4.43;;;-0.70;92.70;;;;;;5070035;28;20629;-75
2022/02/13 05:27:36;;;;;;;3.75;3.53;;;-0.60;92.70;;;;;;5068201;28;20221;-76
2022/02/13 05:30:03;;;;;;;3.95;3.65;;;-0.70;92.70;;;;;;5067856;28;20194;-75
2022/02/13 05:32:32;;;;;;;3.67;3.47;;;-0.70;92.80;;;;;;5069504;28;20209;-75
2022/02/13 05:34:59;;;;;;;3.78;3.58;;;-0.70;92.80;;;;;;5071521;28;20608;-74
2022/02/13 05:37:26;;;;;;;4.10;3.90;;;-0.80;92.70;;;;;;5071588;28;20918;-75
2022/02/13 05:39:53;;;;;;;3.50;3.30;;;-0.80;92.70;;;;;;5071151;28;20191;-77
2022/02/13 05:42:23;;;;;;;4.20;3.95;;;-0.80;92.80;;;;;;5070319;28;20218;-73
2022/02/13 05:44:50;;;;;;;4.05;3.85;;;-0.70;92.80;;;;;;5070121;28;20222;-76
2022/02/13 05:47:17;;;;;;;4.18;3.97;;;-0.70;92.70;;;;;;5066765;28;20214;-77
2022/02/13 05:49:46;;;;;;;4.00;3.80;;;-0.80;92.70;;;;;;5084623;28;20178;-77
2022/02/13 05:52:13;;;;;;;3.72;3.53;;;-0.80;92.70;;;;;;5066953;28;20631;-77
2022/02/13 05:54:40;;;;;;;4.80;4.50;;;-0.80;92.70;;;;;;5072895;28;20237;-76
2022/02/13 05:57:08;;;;;;;4.88;4.57;;;-0.90;92.80;;;;;;5067433;28;20244;-77
2022/02/13 05:59:35;;;;;;;4.70;4.35;;;-0.90;93.00;;;;;;5072164;28;20254;-76
2022/02/13 06:02:03;;;;;;;6.00;5.50;;;-0.90;93.00;;;;;;5071640;28;20222;-76
2022/02/13 06:04:30;;;;;;;5.25;4.85;;;-0.90;93.10;;;;;;5071478;28;20237;-77
2022/02/13 06:06:58;;;;;;;4.93;4.63;;;-0.90;93.10;;;;;;5070845;28;20218;-76
2022/02/13 06:09:25;;;;;;;4.65;4.35;;;-1.00;93.00;;;;;;5070685;28;20198;-76
2022/02/13 06:11:52;;;;;;;4.25;3.95;;;-1.00;93.00;;;;;;5069788;28;20222;-76
2022/02/13 06:14:20;;;;;;;4.07;3.80;;;-1.00;93.00;;;;;;5067341;28;20712;-76
2022/02/13 06:16:47;;;;;;;4.15;3.95;;;-1.00;93.10;;;;;;5070275;28;20279;-77
2022/02/13 06:19:14;;;;;;;4.18;3.90;;;-1.00;93.10;;;;;;5068692;28;20202;-76
2022/02/13 06:21:41;;;;;;;3.90;3.55;;;-1.00;93.10;;;;;;5069902;28;20225;-76
2022/02/13 06:24:10;;;;;;;4.25;4.03;;;-1.10;93.10;;;;;;5073133;28;20677;-77
2022/02/13 06:26:37;;;;;;;4.13;3.83;;;-1.10;93.10;;;;;;5068606;28;20221;-76
2022/02/13 06:29:04;;;;;;;5.22;4.82;;;-1.10;93.70;;;;;;5069446;28;20220;-76
2022/02/13 06:31:31;;;;;;;4.47;4.18;;;-1.10;93.30;;;;;;5065631;28;20230;-74
2022/02/13 06:33:58;;;;;;;5.03;4.72;;;-1.00;93.30;;;;;;5068420;28;20567;-76
2022/02/13 06:36:25;;;;;;;4.97;4.57;;;-1.00;93.60;;;;;;5072206;28;20593;-75
2022/02/13 06:38:52;;;;;;;4.20;4.00;;;-1.00;93.80;;;;;;5067908;28;20643;-76
2022/02/13 06:41:21;;;;;;;4.63;4.32;;;-0.90;93.90;;;;;;5068196;28;20218;-75
2022/02/13 06:43:48;;;;;;;5.40;4.90;;;-0.90;93.90;;;;;;5081766;28;20187;-77
2022/02/13 06:46:15;;;;;;;5.57;5.18;;;-0.90;93.60;;;;;;5073186;28;20649;-76
2022/02/13 06:48:42;;;;;;;6.20;5.80;;;-0.90;93.60;;;;;;5069202;28;20233;-76
2022/02/13 06:51:10;;;;;;;5.55;5.15;;;-0.80;93.20;;;;;;5069290;28;20294;-76
2022/02/13 06:53:37;;;;;;;5.45;5.05;;;-0.80;93.30;;;;;;5071200;28;20200;-76
2022/02/13 06:56:04;;;;;;;4.43;4.15;;;-0.80;93.30;;;;;;5066979;28;20225;-76
2022/02/13 06:58:33;;;;;;;5.03;4.72;;;-0.80;93.30;;;;;;5067383;28;20210;-74
2022/02/13 07:01:01;;;;;;;4.88;4.57;;;-0.80;93.50;;;;;;5064653;28;20259;-74
2022/02/13 07:03:28;;;;;;;4.50;4.20;;;-0.80;93.50;;;;;;5066532;28;20754;-76
2022/02/13 07:05:55;;;;;;;4.22;4.00;;;-0.80;93.40;;;;;;5073530;28;20218;-76
2022/02/13 07:08:22;;;;;;;4.18;3.97;;;-0.80;93.30;;;;;;5072721;28;20696;-76
2022/02/13 07:10:49;;;;;;;3.85;3.65;;;-0.80;93.30;;;;;;5073563;28;20217;-75
2022/02/13 07:13:16;;;;;;;3.90;3.67;;;-0.80;93.20;;;;;;5063271;28;20203;-76
2022/02/13 07:15:44;;;;;;;4.03;3.83;;;-0.80;93.30;;;;;;5067439;28;20284;-75
2022/02/13 07:18:12;;;;;;;4.38;4.07;;;-0.80;93.20;;;;;;5066242;28;20199;-76
2022/02/13 07:20:39;;;;;;;4.03;3.72;;;-0.80;93.20;;;;;;5072338;28;20616;-77
2022/02/13 07:23:06;;;;;;;4.60;4.30;;;-0.80;93.20;;;;;;5067681;28;20201;-76
2022/02/13 07:25:33;;;;;;;3.80;3.60;;;-0.80;93.30;;;;;;5073625;28;20225;-76
2022/02/13 07:28:58;;;;;;;4.50;4.20;;;-0.70;93.30;;;;;;5071064;28;20222;-75
2022/02/13 07:30:51;;;;;;;4.47;4.18;;;-0.70;93.20;;;;;;5062038;28;20210;-76
2022/02/13 07:33:18;;;;;;;4.50;4.20;;;-0.70;93.30;;;;;;5071748;28;20201;-75
2022/02/13 07:35:45;;;;;;;4.53;4.22;;;0.10;93.40;;;;;;5071500;28;20229;-76
2022/02/13 07:38:12;;;;;;;3.95;3.67;;;1.20;93.00;;;;;;5082723;28;20205;-76
2022/02/13 07:40:39;;;;;;;3.83;3.53;;;2.30;91.60;;;;;;5061763;28;20252;-76
2022/02/13 07:43:07;;;;;;;4.18;3.95;;;3.30;90.80;;;;;;5067036;28;20559;-77
2022/02/13 07:45:34;;;;;;;4.30;3.92;;;4.00;89.70;;;;;;5062740;28;20234;-75
2022/02/13 07:48:02;;;;;;;4.80;4.38;;;4.70;88.30;;;;;;5066204;28;20310;-76
2022/02/13 07:50:30;;;;;;;4.13;3.83;;;5.10;87.40;;;;;;5064299;28;20190;-77
2022/02/13 07:52:57;;;;;;;4.53;4.13;;;5.60;85.70;;;;;;5068829;28;20486;-76
2022/02/13 07:55:24;;;;;;;4.50;4.10;;;6.20;84.90;;;;;;5073612;28;20214;-77
2022/02/13 07:57:51;;;;;;;4.63;4.22;;;6.50;83.50;;;;;;5072453;28;21240;-76
2022/02/13 08:00:18;;;;;;;5.13;4.72;;;6.70;83.30;;;;;;5073710;28;20190;-77
2022/02/13 08:02:45;;;;;;;5.10;4.68;;;6.70;82.90;;;;;;5069944;28;20285;-76
2022/02/13 08:05:14;;;;;;;6.53;5.07;;;6.80;82.90;;;;;;5074056;28;20218;-74
2022/02/13 08:07:47;;;;;;;4.40;4.00;;;6.90;82.20;;;;;;5074969;28;20221;-77
2022/02/13 08:10:15;;;;;;;4.10;3.72;;;7.10;80.70;;;;;;5070542;28;20206;-75
2022/02/13 08:12:42;;;;;;;3.97;3.67;;;7.20;81.20;;;;;;5074815;28;20221;-72
2022/02/13 08:15:09;;;;;;;4.10;3.80;;;7.40;81.10;;;;;;5069196;28;20226;-76
2022/02/13 08:17:37;;;;;;;3.83;3.53;;;7.60;80.40;;;;;;5065975;28;20225;-76
2022/02/13 08:20:05;;;;;;;4.40;4.00;;;7.80;80.00;;;;;;5072365;28;20198;-76
2022/02/13 08:22:34;;;;;;;4.25;3.90;;;8.10;80.00;;;;;;5072419;28;20289;-76
2022/02/13 08:25:02;;;;;;;3.80;3.50;;;8.00;79.40;;;;;;5076790;28;20344;-77
2022/02/13 08:27:29;;;;;;;3.67;3.38;;;8.10;79.80;;;;;;5068044;28;20607;-76
2022/02/13 08:29:56;;;;;;;3.95;3.65;;;8.30;78.40;;;;;;5071513;28;20198;-76
2022/02/13 08:32:24;;;;;;;3.75;3.47;;;8.50;78.70;;;;;;5085304;28;20222;-76
2022/02/13 08:34:53;;;;;;;3.67;3.38;;;8.70;78.70;;;;;;5071121;28;20229;-77
2022/02/13 08:37:20;;;;;;;3.30;2.97;;;8.90;78.00;;;;;;5069283;28;20218;-77
2022/02/13 08:39:49;;;;;;;3.55;3.25;;;8.90;77.50;;;;;;5071122;28;20200;-77
2022/02/13 08:42:16;;;;;;;3.70;3.40;;;8.80;77.40;;;;;;5071029;28;20268;-76
2022/02/13 08:44:43;;;;;;;3.97;3.50;;;8.90;77.60;;;;;;5070979;28;20229;-77
2022/02/13 08:47:10;;;;;;;4.38;3.55;;;9.10;77.20;;;;;;5067482;28;20225;-76
2022/02/13 08:49:37;;;;;;;5.13;3.20;;;8.70;76.10;;;;;;5071202;28;20238;-76
2022/02/13 08:52:05;;;;;;;5.22;3.78;;;8.70;77.30;;;;;;5066761;28;20244;-74
2022/02/13 08:54:32;;;;;;;3.05;2.75;;;9.00;78.50;;;;;;5074293;28;20230;-75
2022/02/13 08:57:01;;;;;;;3.47;3.17;;;9.30;75.90;;;;;;5071057;28;20596;-73
2022/02/13 08:59:28;;;;;;;3.72;3.42;;;9.20;76.50;;;;;;5074923;28;20668;-77
2022/02/13 09:01:55;;;;;;;3.65;3.35;;;9.40;76.00;;;;;;5066471;28;20283;-76
2022/02/13 09:04:22;;;;;;;3.47;3.17;;;9.70;75.80;;;;;;5071558;28;20858;-77
2022/02/13 09:06:49;;;;;;;4.25;3.47;;;9.90;76.10;;;;;;5068450;28;20213;-77
2022/02/13 09:09:17;;;;;;;4.28;3.67;;;9.80;75.10;;;;;;5072438;28;20648;-76
2022/02/13 09:11:44;;;;;;;4.32;3.45;;;9.80;76.20;;;;;;5070689;28;20233;-77
2022/02/13 09:14:12;;;;;;;3.55;3.25;;;9.70;75.50;;;;;;5067466;28;20214;-76
2022/02/13 09:16:39;;;;;;;3.75;3.40;;;9.60;75.60;;;;;;5068914;28;20214;-76
2022/02/13 09:19:07;;;;;;;3.65;3.35;;;9.60;75.20;;;;;;5070604;28;20187;-76
2022/02/13 09:21:35;;;;;;;5.03;3.58;;;9.80;75.30;;;;;;5073593;28;20719;-76
2022/02/13 09:24:02;;;;;;;5.47;3.88;;;10.10;75.20;;;;;;5072817;28;20347;-76
2022/02/13 09:26:29;;;;;;;3.65;3.35;;;10.40;74.90;;;;;;5087078;28;20217;-77
2022/02/13 09:28:56;;;;;;;3.63;3.42;;;10.40;72.90;;;;;;5072419;28;20218;-76
2022/02/13 09:31:25;;;;;;;3.20;2.90;;;10.80;73.90;;;;;;5071617;28;20217;-76
2022/02/13 09:33:52;;;;;;;4.53;3.45;;;10.80;72.90;;;;;;5075211;28;20663;-76
2022/02/13 09:36:20;;;;;;;4.32;3.45;;;11.00;73.70;;;;;;5065204;28;20332;-76
2022/02/13 09:38:47;;;;;;;3.53;3.22;;;11.30;74.20;;;;;;5071031;28;20198;-76
2022/02/13 09:41:18;;;;;;;3.50;3.20;;;11.30;73.20;;;;;;5066208;28;20218;-76
2022/02/13 09:43:45;;;;;;;3.90;3.50;;;11.10;73.90;;;;;;5069219;28;20198;-76
2022/02/13 09:46:14;;;;;;;4.10;3.72;;;11.00;74.00;;;;;;5066013;22;20226;-70
2022/02/13 09:48:44;;;;;;;4.03;3.72;;;11.00;73.90;;;;;;5045640;28;20284;-72
2022/02/13 09:51:12;;;;;;;3.70;3.30;;;11.40;74.20;;;;;;5042064;28;20236;-68
2022/02/13 09:53:39;;;;;;;3.83;3.20;;;11.20;73.70;;;;;;5043247;28;20203;-69
2022/02/13 09:56:08;;;;;;;4.10;3.70;;;11.40;73.20;;;;;;5034736;28;20230;-69
2022/02/13 09:58:36;;;;;;;3.55;3.25;;;11.20;72.10;;;;;;5026491;28;20210;-69
2022/02/13 10:01:06;;;;;;;3.83;3.53;;;10.90;71.30;;;;;;5020763;28;20202;-69
2022/02/13 10:03:35;;;;;;;3.33;3.03;;;10.60;72.50;;;;;;5020886;28;20884;-70
2022/02/13 10:06:21;;;;;;;3.10;2.88;;;10.40;70.40;;;;;;5023755;28;20563;-70
2022/02/13 10:08:49;;;;;;;4.78;3.33;;;10.50;72.50;;;;;;5022827;28;20223;-69
2022/02/13 10:11:18;;;;;;;4.47;4.00;;;10.80;73.20;;;;;;5029380;28;20219;-69
2022/02/13 10:13:50;;;;;;;4.32;3.72;;;10.70;72.80;;;;;;5033035;28;20191;-70
2022/02/13 10:16:20;;;;;;;4.07;3.78;;;10.80;73.70;;;;;;5024678;28;20281;-70
2022/02/13 10:18:50;;;;;;;4.03;3.72;;;10.90;74.00;;;;;;5032306;28;20202;-69
2022/02/13 10:21:39;;;;;;;3.47;3.17;;;10.90;72.40;;;;;;5020940;28;20294;-69
2022/02/13 10:24:14;;;;;;;3.67;3.38;;;10.90;73.40;;;;;;5027230;28;20290;-69
2022/02/13 10:26:41;;;;;;;4.35;2.70;;;10.90;73.20;;;;;;5024582;28;20718;-70
2022/02/13 10:29:08;;;;;;;3.50;3.20;;;11.10;72.30;;;;;;5018708;28;20902;-69
2022/02/13 10:31:36;;;;;;;3.90;3.00;;;11.00;71.50;;;;;;5024821;28;20235;-71
2022/02/13 10:34:03;;;;;;;3.45;2.83;;;10.90;71.40;;;;;;5027574;28;20290;-69
2022/02/13 10:36:39;;;;;;;4.22;3.22;;;11.00;70.80;;;;;;5021374;28;20779;-71
2022/02/13 10:39:20;;;;;;;3.70;3.28;;;10.90;71.00;;;;;;5027111;28;20315;-69
2022/02/13 10:41:49;;;;;;;3.90;3.40;;;11.20;71.10;;;;;;5029228;28;20226;-70
2022/02/13 10:44:16;;;;;;;3.28;2.97;;;11.20;70.60;;;;;;5023363;28;20287;-70
2022/02/13 10:46:44;;;;;;;3.22;2.92;;;11.30;70.40;;;;;;5020393;28;20228;-68
2022/02/13 10:49:13;;;;;;;3.63;2.63;;;11.50;69.50;;;;;;5023192;28;20228;-69
2022/02/13 10:51:42;;;;;;;2.90;2.70;;;11.50;69.40;;;;;;5023270;28;20220;-70
2022/02/13 10:54:09;;;;;;;3.97;3.08;;;11.60;69.30;;;;;;5025792;28;20196;-69
2022/02/13 10:56:37;;;;;;;3.25;2.80;;;11.40;69.80;;;;;;5027408;28;20227;-70
2022/02/13 10:59:06;;;;;;;3.42;3.13;;;11.40;69.20;;;;;;5023369;28;20195;-69
2022/02/13 11:01:34;;;;;;;3.42;3.13;;;11.30;68.60;;;;;;5025518;28;20238;-70
2022/02/13 11:04:04;;;;;;;3.25;2.95;;;11.30;68.50;;;;;;5021948;28;20294;-70
2022/02/13 11:06:35;;;;;;;3.10;2.80;;;11.30;68.60;;;;;;5022147;28;20233;-70
2022/02/13 11:09:10;;;;;;;3.22;2.92;;;11.40;69.50;;;;;;5026155;28;20685;-72
2022/02/13 11:11:39;;;;;;;3.45;3.15;;;11.50;68.80;;;;;;5023802;28;20214;-73
2022/02/13 11:14:06;;;;;;;4.22;2.97;;;11.30;68.40;;;;;;5026075;28;20585;-70
2022/02/13 11:16:36;;;;;;;3.58;3.25;;;11.20;68.50;;;;;;5023640;28;20322;-72
2022/02/13 11:19:07;;;;;;;2.85;2.65;;;11.00;67.90;;;;;;5027276;28;20586;-71
2022/02/13 11:21:35;;;;;;;3.72;2.65;;;11.00;68.50;;;;;;5021908;28;20717;-71
2022/02/13 11:24:05;;;;;;;3.10;2.80;;;11.20;68.50;;;;;;5024615;28;20649;-72
2022/02/13 11:26:37;;;;;;;3.35;3.05;;;11.10;68.00;;;;;;5020268;28;20227;-71
2022/02/13 11:29:04;;;;;;;2.88;2.67;;;11.10;68.20;;;;;;5021439;28;20769;-69
2022/02/13 11:31:40;;;;;;;3.03;2.80;;;11.20;67.70;;;;;;5027066;28;20745;-68
2022/02/13 11:34:09;;;;;;;3.17;2.95;;;11.20;67.50;;;;;;5027064;28;20199;-70
2022/02/13 11:36:48;;;;;;;2.90;2.70;;;11.10;68.20;;;;;;5025661;28;20223;-73
2022/02/13 11:39:36;;;;;;;2.70;2.50;;;11.10;67.90;;;;;;5017531;28;20196;-70
2022/02/13 11:42:09;;;;;;;2.10;2.00;;;11.20;67.00;;;;;;5026402;28;20225;-73
2022/02/13 11:44:41;;;;;;;2.88;2.67;;;11.30;66.80;;;;;;5023232;28;20287;-70
2022/02/13 11:47:10;;;;;;;2.78;2.58;;;11.20;67.10;;;;;;5025110;28;20223;-70
2022/02/13 11:50:14;;;;;;;2.92;2.72;;;11.10;67.10;;;;;;5022237;28;20701;-69
2022/02/13 11:52:51;;;;;;;3.25;3.05;;;11.10;66.50;;;;;;5000108;28;20230;-70
2022/02/13 11:55:20;;;;;;;2.85;2.65;;;11.00;66.00;;;;;;5023560;28;20296;-69
2022/02/13 11:58:09;;;;;;;3.53;3.08;;;11.00;66.50;;;;;;5029117;28;20274;-70
2022/02/13 12:00:43;;;;;;;2.83;2.60;;;11.10;67.20;;;;;;5023672;28;20235;-73
2022/02/13 12:03:15;;;;;;;2.85;2.65;;;11.40;67.10;;;;;;5028852;28;20219;-70
2022/02/13 12:05:42;;;;;;;2.83;2.60;;;11.20;66.80;;;;;;5019243;28;20690;-70
2022/02/13 12:08:10;;;;;;;2.85;2.53;;;11.30;75.20;;;;;;5025343;28;20224;-70
2022/02/13 12:10:42;;;;;;;4.10;2.80;;;11.50;72.50;;;;;;5021821;28;20702;-70
2022/02/13 12:13:14;;;;;;;9.43;2.28;;;12.10;72.50;;;;;;5029929;28;20231;-70
2022/02/13 12:15:48;;;;;;;3.72;2.75;;;12.90;71.00;;;;;;5023150;28;20838;-73
2022/02/13 12:18:15;;;;;;;3.17;2.58;;;13.50;69.50;;;;;;5020446;28;20231;-69
2022/02/13 12:20:43;;;;;;;2.30;2.20;;;13.20;65.00;;;;;;5026205;28;20211;-70
2022/02/13 12:23:12;;;;;;;2.40;2.00;;;13.00;64.40;;;;;;5020976;28;20270;-69
2022/02/13 12:25:45;;;;;;;2.60;2.10;;;12.60;63.30;;;;;;5019833;28;20218;-76
2022/02/13 12:28:14;;;;;;;2.45;2.33;;;12.30;63.20;;;;;;5022697;28;20258;-72
2022/02/13 12:30:48;;;;;;;2.63;2.28;;;11.90;63.80;;;;;;5026326;28;20269;-70
2022/02/13 12:33:17;;;;;;;2.53;2.33;;;11.60;64.00;;;;;;5019959;28;20226;-72
2022/02/13 12:35:45;;;;;;;2.97;2.70;;;11.40;64.60;;;;;;5023325;28;20226;-72
2022/02/13 12:38:13;;;;;;;2.33;2.13;;;11.30;64.80;;;;;;5033395;28;20223;-72
2022/02/13 12:40:44;;;;;;;2.70;2.50;;;11.30;64.60;;;;;;5033299;28;20254;-74
2022/02/13 12:43:16;;;;;;;2.70;2.50;;;11.00;64.90;;;;;;5024268;28;20277;-75
2022/02/13 12:45:45;;;;;;;2.50;2.30;;;11.00;65.50;;;;;;5018336;28;20238;-70
2022/02/13 12:48:15;;;;;;;2.35;2.15;;;11.30;65.40;;;;;;5022291;28;20215;-76
2022/02/13 12:50:45;;;;;;;2.58;2.38;;;11.30;64.70;;;;;;5018564;28;20302;-72
2022/02/13 12:53:14;;;;;;;2.60;2.40;;;11.30;64.80;;;;;;5022365;28;20370;-72
2022/02/13 12:55:43;;;;;;;2.65;2.45;;;11.40;65.10;;;;;;5027101;28;20555;-72